sensor_id;sensor_type;location;lat;lon;timestamp;pressure;altitude;pressure_sealevel;temperature;humidity
68616;BME280;57261;47.504;19.084;2022-07-23T00:01:05;100250.91;;;32.27;41.36
68616;BME280;57261;47.504;19.084;2022-07-23T00:04:06;100248.25;;;32.27;42.09
68616;BME280;57261;47.504;19.084;2022-07-23T00:07:06;100250.75;;;32.29;41.39
68616;BME280;57261;47.504;19.084;2022-07-23T00:10:07;100244.41;;;32.30;40.60
68616;BME280;57261;47.504;19.084;2022-07-23T00:13:08;100247.63;;;32.26;41.04
68616;BME280;57261;47.504;19.084;2022-07-23T00:16:08;100245.44;;;32.29;40.95
68616;BME280;57261;47.504;19.084;2022-07-23T00:19:09;100249.91;;;32.28;40.82
68616;BME280;57261;47.504;19.084;2022-07-23T00:22:09;100248.75;;;32.23;40.63
68616;BME280;57261;47.504;19.084;2022-07-23T00:25:10;100245.28;;;32.23;40.80
68616;BME280;57261;47.504;19.084;2022-07-23T00:28:10;100250.63;;;32.23;40.74
68616;BME280;57261;47.504;19.084;2022-07-23T00:31:11;100255.97;;;32.23;40.92
68616;BME280;57261;47.504;19.084;2022-07-23T00:34:11;100253.00;;;32.18;40.65
68616;BME280;57261;47.504;19.084;2022-07-23T00:37:12;100253.00;;;32.18;40.70
68616;BME280;57261;47.504;19.084;2022-07-23T00:40:12;100255.00;;;32.16;40.78
68616;BME280;57261;47.504;19.084;2022-07-23T00:43:13;100247.88;;;32.08;41.19
68616;BME280;57261;47.504;19.084;2022-07-23T00:46:19;100257.34;;;32.11;41.20
68616;BME280;57261;47.504;19.084;2022-07-23T00:49:21;100262.53;;;32.04;41.25
68616;BME280;57261;47.504;19.084;2022-07-23T00:52:22;100266.34;;;32.02;41.46
68616;BME280;57261;47.504;19.084;2022-07-23T00:55:23;100263.91;;;31.92;42.04
68616;BME280;57261;47.504;19.084;2022-07-23T00:58:23;100269.88;;;32.02;41.74
68616;BME280;57261;47.504;19.084;2022-07-23T01:01:23;100259.03;;;31.96;41.79
68616;BME280;57261;47.504;19.084;2022-07-23T01:04:24;100263.38;;;31.97;41.79
68616;BME280;57261;47.504;19.084;2022-07-23T01:07:24;100263.06;;;31.92;41.94
68616;BME280;57261;47.504;19.084;2022-07-23T01:10:25;100256.72;;;31.93;41.79
68616;BME280;57261;47.504;19.084;2022-07-23T01:13:32;100261.22;;;31.92;41.61
68616;BME280;57261;47.504;19.084;2022-07-23T01:16:32;100261.41;;;31.91;41.90
68616;BME280;57261;47.504;19.084;2022-07-23T01:19:33;100259.38;;;31.93;41.80
68616;BME280;57261;47.504;19.084;2022-07-23T01:22:33;100256.88;;;31.91;42.04
68616;BME280;57261;47.504;19.084;2022-07-23T01:25:34;100252.75;;;31.89;42.26
68616;BME280;57261;47.504;19.084;2022-07-23T01:28:34;100254.41;;;31.90;41.37
68616;BME280;57261;47.504;19.084;2022-07-23T01:31:35;100254.75;;;31.87;41.70
68616;BME280;57261;47.504;19.084;2022-07-23T01:34:35;100253.91;;;31.86;41.76
68616;BME280;57261;47.504;19.084;2022-07-23T01:37:36;100247.72;;;31.86;41.47
68616;BME280;57261;47.504;19.084;2022-07-23T01:40:37;100250.06;;;31.89;41.66
68616;BME280;57261;47.504;19.084;2022-07-23T01:43:37;100255.59;;;31.87;41.19
68616;BME280;57261;47.504;19.084;2022-07-23T01:46:38;100255.91;;;31.84;41.35
68616;BME280;57261;47.504;19.084;2022-07-23T01:49:39;100259.75;;;31.82;41.45
68616;BME280;57261;47.504;19.084;2022-07-23T01:52:42;100262.13;;;31.77;41.40
68616;BME280;57261;47.504;19.084;2022-07-23T01:55:46;100258.59;;;31.76;41.13
68616;BME280;57261;47.504;19.084;2022-07-23T01:58:49;100245.31;;;31.68;41.50
68616;BME280;57261;47.504;19.084;2022-07-23T02:01:51;100252.97;;;31.71;41.50
68616;BME280;57261;47.504;19.084;2022-07-23T02:04:51;100251.28;;;31.70;41.70
68616;BME280;57261;47.504;19.084;2022-07-23T02:07:52;100251.47;;;31.69;41.67
68616;BME280;57261;47.504;19.084;2022-07-23T02:10:52;100248.97;;;31.67;41.88
68616;BME280;57261;47.504;19.084;2022-07-23T02:13:53;100247.31;;;31.66;41.47
68616;BME280;57261;47.504;19.084;2022-07-23T02:16:54;100234.50;;;31.62;41.51
68616;BME280;57261;47.504;19.084;2022-07-23T02:19:54;100245.97;;;31.62;41.71
68616;BME280;57261;47.504;19.084;2022-07-23T02:22:55;100247.81;;;31.62;41.68
68616;BME280;57261;47.504;19.084;2022-07-23T02:25:55;100246.16;;;31.61;40.97
68616;BME280;57261;47.504;19.084;2022-07-23T02:28:55;100242.19;;;31.57;40.72
68616;BME280;57261;47.504;19.084;2022-07-23T02:31:56;100249.50;;;31.55;40.75
68616;BME280;57261;47.504;19.084;2022-07-23T02:34:56;100251.50;;;31.53;40.77
68616;BME280;57261;47.504;19.084;2022-07-23T02:37:56;100256.16;;;31.51;40.70
68616;BME280;57261;47.504;19.084;2022-07-23T02:40:57;100253.16;;;31.46;40.50
68616;BME280;57261;47.504;19.084;2022-07-23T02:43:57;100256.84;;;31.45;40.61
68616;BME280;57261;47.504;19.084;2022-07-23T02:46:58;100256.66;;;31.47;40.34
68616;BME280;57261;47.504;19.084;2022-07-23T02:49:58;100255.81;;;31.46;40.80
68616;BME280;57261;47.504;19.084;2022-07-23T02:53:01;100249.84;;;31.44;40.40
68616;BME280;57261;47.504;19.084;2022-07-23T02:56:02;100251.66;;;31.44;40.62
68616;BME280;57261;47.504;19.084;2022-07-23T02:59:03;100253.19;;;31.30;40.41
68616;BME280;57261;47.504;19.084;2022-07-23T03:02:03;100258.03;;;31.27;40.54
68616;BME280;57261;47.504;19.084;2022-07-23T03:05:04;100248.19;;;31.27;40.39
68616;BME280;57261;47.504;19.084;2022-07-23T03:08:04;100259.88;;;31.18;40.54
68616;BME280;57261;47.504;19.084;2022-07-23T03:11:05;100257.72;;;31.22;40.36
68616;BME280;57261;47.504;19.084;2022-07-23T03:14:10;100253.38;;;31.13;40.76
68616;BME280;57261;47.504;19.084;2022-07-23T03:17:13;100259.38;;;31.15;40.77
68616;BME280;57261;47.504;19.084;2022-07-23T03:20:13;100254.53;;;31.10;40.94
68616;BME280;57261;47.504;19.084;2022-07-23T03:23:15;100261.19;;;31.06;41.20
68616;BME280;57261;47.504;19.084;2022-07-23T03:26:16;100267.50;;;31.05;40.96
68616;BME280;57261;47.504;19.084;2022-07-23T03:29:16;100274.38;;;31.08;41.50
68616;BME280;57261;47.504;19.084;2022-07-23T03:32:17;100268.03;;;31.01;41.75
68616;BME280;57261;47.504;19.084;2022-07-23T03:35:18;100266.00;;;30.95;41.83
68616;BME280;57261;47.504;19.084;2022-07-23T03:38:18;100263.16;;;30.96;42.10
68616;BME280;57261;47.504;19.084;2022-07-23T03:41:20;100256.84;;;30.97;41.34
68616;BME280;57261;47.504;19.084;2022-07-23T03:44:20;100264.16;;;30.95;41.48
68616;BME280;57261;47.504;19.084;2022-07-23T03:47:20;100258.66;;;30.97;42.05
68616;BME280;57261;47.504;19.084;2022-07-23T03:50:22;100263.66;;;30.92;41.95
68616;BME280;57261;47.504;19.084;2022-07-23T03:53:22;100265.50;;;30.91;41.60
68616;BME280;57261;47.504;19.084;2022-07-23T03:56:22;100259.31;;;30.91;41.83
68616;BME280;57261;47.504;19.084;2022-07-23T03:59:23;100265.97;;;30.79;42.16
68616;BME280;57261;47.504;19.084;2022-07-23T04:02:23;100263.16;;;30.80;42.23
68616;BME280;57261;47.504;19.084;2022-07-23T04:05:24;100259.47;;;30.81;41.97
68616;BME280;57261;47.504;19.084;2022-07-23T04:08:25;100268.16;;;30.83;42.10
68616;BME280;57261;47.504;19.084;2022-07-23T04:11:25;100273.78;;;30.80;41.98
68616;BME280;57261;47.504;19.084;2022-07-23T04:14:26;100274.13;;;30.77;42.88
68616;BME280;57261;47.504;19.084;2022-07-23T04:17:26;100275.47;;;30.81;42.49
68616;BME280;57261;47.504;19.084;2022-07-23T04:20:27;100273.97;;;30.79;42.04
68616;BME280;57261;47.504;19.084;2022-07-23T04:23:27;100276.13;;;30.75;41.89
68616;BME280;57261;47.504;19.084;2022-07-23T04:26:27;100275.13;;;30.76;41.85
68616;BME280;57261;47.504;19.084;2022-07-23T04:29:28;100270.81;;;30.75;42.30
68616;BME280;57261;47.504;19.084;2022-07-23T04:32:28;100276.44;;;30.72;42.47
68616;BME280;57261;47.504;19.084;2022-07-23T04:35:29;100273.63;;;30.74;42.57
68616;BME280;57261;47.504;19.084;2022-07-23T04:38:29;100278.63;;;30.77;41.98
68616;BME280;57261;47.504;19.084;2022-07-23T04:41:30;100284.44;;;30.72;42.53
68616;BME280;57261;47.504;19.084;2022-07-23T04:44:30;100284.09;;;30.68;43.59
68616;BME280;57261;47.504;19.084;2022-07-23T04:47:31;100289.09;;;30.71;43.23
68616;BME280;57261;47.504;19.084;2022-07-23T04:50:31;100294.44;;;30.71;42.99
68616;BME280;57261;47.504;19.084;2022-07-23T04:53:32;100294.41;;;30.78;43.22
68616;BME280;57261;47.504;19.084;2022-07-23T04:56:32;100293.44;;;30.79;43.08
68616;BME280;57261;47.504;19.084;2022-07-23T04:59:32;100296.47;;;30.84;43.24
68616;BME280;57261;47.504;19.084;2022-07-23T05:02:33;100299.44;;;30.81;43.10
68616;BME280;57261;47.504;19.084;2022-07-23T05:05:33;100302.09;;;30.81;42.66
68616;BME280;57261;47.504;19.084;2022-07-23T05:08:33;100290.44;;;30.82;43.22
68616;BME280;57261;47.504;19.084;2022-07-23T05:11:34;100284.28;;;30.82;42.93
68616;BME280;57261;47.504;19.084;2022-07-23T05:14:34;100287.78;;;30.82;42.48
68616;BME280;57261;47.504;19.084;2022-07-23T05:17:35;100279.44;;;30.85;42.36
68616;BME280;57261;47.504;19.084;2022-07-23T05:20:35;100274.13;;;30.85;42.01
68616;BME280;57261;47.504;19.084;2022-07-23T05:23:35;100281.78;;;30.88;41.73
68616;BME280;57261;47.504;19.084;2022-07-23T05:26:36;100278.13;;;30.89;41.03
68616;BME280;57261;47.504;19.084;2022-07-23T05:29:36;100278.13;;;30.89;40.65
68616;BME280;57261;47.504;19.084;2022-07-23T05:32:39;100282.97;;;30.94;40.67
68616;BME280;57261;47.504;19.084;2022-07-23T05:35:40;100286.47;;;30.94;40.98
68616;BME280;57261;47.504;19.084;2022-07-23T05:38:40;100289.31;;;30.93;41.19
68616;BME280;57261;47.504;19.084;2022-07-23T05:41:41;100287.81;;;30.98;41.21
68616;BME280;57261;47.504;19.084;2022-07-23T05:44:41;100283.03;;;31.02;40.49
68616;BME280;57261;47.504;19.084;2022-07-23T05:47:48;100279.50;;;31.09;40.80
68616;BME280;57261;47.504;19.084;2022-07-23T05:50:49;100284.00;;;31.09;40.33
68616;BME280;57261;47.504;19.084;2022-07-23T05:53:50;100278.53;;;31.10;40.45
68616;BME280;57261;47.504;19.084;2022-07-23T05:56:50;100277.53;;;31.11;40.68
68616;BME280;57261;47.504;19.084;2022-07-23T05:59:50;100283.66;;;31.12;40.36
68616;BME280;57261;47.504;19.084;2022-07-23T06:02:51;100283.34;;;31.15;40.53
68616;BME280;57261;47.504;19.084;2022-07-23T06:05:52;100281.34;;;31.17;40.74
68616;BME280;57261;47.504;19.084;2022-07-23T06:08:52;100287.00;;;31.14;41.66
68616;BME280;57261;47.504;19.084;2022-07-23T06:11:52;100282.31;;;31.16;41.74
68616;BME280;57261;47.504;19.084;2022-07-23T06:14:53;100273.00;;;31.12;45.16
68616;BME280;57261;47.504;19.084;2022-07-23T06:17:53;100260.50;;;31.12;41.37
68616;BME280;57261;47.504;19.084;2022-07-23T06:20:54;100262.03;;;31.15;44.61
68616;BME280;57261;47.504;19.084;2022-07-23T06:23:54;100262.84;;;31.07;44.41
68616;BME280;57261;47.504;19.084;2022-07-23T06:26:55;100260.19;;;31.07;46.48
68616;BME280;57261;47.504;19.084;2022-07-23T06:29:55;100253.19;;;31.06;46.48
68616;BME280;57261;47.504;19.084;2022-07-23T06:32:56;100258.88;;;31.03;46.75
68616;BME280;57261;47.504;19.084;2022-07-23T06:35:56;100261.19;;;30.98;46.91
68616;BME280;57261;47.504;19.084;2022-07-23T06:38:56;100260.84;;;31.01;45.44
68616;BME280;57261;47.504;19.084;2022-07-23T06:41:57;100260.19;;;30.99;47.08
68616;BME280;57261;47.504;19.084;2022-07-23T06:44:57;100259.19;;;31.00;47.14
68616;BME280;57261;47.504;19.084;2022-07-23T06:47:58;100252.69;;;30.95;47.42
68616;BME280;57261;47.504;19.084;2022-07-23T06:50:59;100257.16;;;30.94;47.30
68616;BME280;57261;47.504;19.084;2022-07-23T06:53:59;100252.19;;;30.99;47.25
68616;BME280;57261;47.504;19.084;2022-07-23T06:57:00;100248.00;;;30.97;47.71
68616;BME280;57261;47.504;19.084;2022-07-23T07:00:00;100255.19;;;30.96;47.42
68616;BME280;57261;47.504;19.084;2022-07-23T07:03:01;100255.00;;;30.98;47.11
68616;BME280;57261;47.504;19.084;2022-07-23T07:06:01;100258.16;;;30.93;47.56
68616;BME280;57261;47.504;19.084;2022-07-23T07:09:02;100249.84;;;30.96;47.15
68616;BME280;57261;47.504;19.084;2022-07-23T07:12:03;100257.19;;;31.02;47.03
68616;BME280;57261;47.504;19.084;2022-07-23T07:15:04;100246.88;;;30.99;46.96
68616;BME280;57261;47.504;19.084;2022-07-23T07:18:05;100242.88;;;31.03;47.17
68616;BME280;57261;47.504;19.084;2022-07-23T07:21:08;100239.22;;;31.04;47.32
68616;BME280;57261;47.504;19.084;2022-07-23T07:24:12;100233.91;;;31.04;47.81
68616;BME280;57261;47.504;19.084;2022-07-23T07:27:12;100232.22;;;31.03;47.40
68616;BME280;57261;47.504;19.084;2022-07-23T07:30:13;100221.53;;;30.95;47.50
68616;BME280;57261;47.504;19.084;2022-07-23T07:33:13;100237.22;;;31.06;47.19
68616;BME280;57261;47.504;19.084;2022-07-23T07:36:14;100229.75;;;31.02;47.06
68616;BME280;57261;47.504;19.084;2022-07-23T07:39:14;100219.56;;;30.97;47.17
68616;BME280;57261;47.504;19.084;2022-07-23T07:42:15;100232.38;;;31.10;47.25
68616;BME280;57261;47.504;19.084;2022-07-23T07:45:16;100239.88;;;31.06;47.54
68616;BME280;57261;47.504;19.084;2022-07-23T07:48:16;100240.88;;;31.05;47.43
68616;BME280;57261;47.504;19.084;2022-07-23T07:51:23;100234.41;;;31.08;47.28
68616;BME280;57261;47.504;19.084;2022-07-23T07:54:23;100232.22;;;31.03;47.59
68616;BME280;57261;47.504;19.084;2022-07-23T07:57:24;100230.88;;;30.99;47.60
68616;BME280;57261;47.504;19.084;2022-07-23T08:00:24;100221.56;;;31.03;47.11
68616;BME280;57261;47.504;19.084;2022-07-23T08:03:25;100225.56;;;31.07;47.26
68616;BME280;57261;47.504;19.084;2022-07-23T08:06:25;100217.91;;;31.04;47.08
68616;BME280;57261;47.504;19.084;2022-07-23T08:09:25;100221.56;;;31.11;47.39
68616;BME280;57261;47.504;19.084;2022-07-23T08:12:26;100233.56;;;31.07;46.88
68616;BME280;57261;47.504;19.084;2022-07-23T08:15:28;100228.03;;;31.09;47.00
68616;BME280;57261;47.504;19.084;2022-07-23T08:18:29;100226.41;;;31.08;46.96
68616;BME280;57261;47.504;19.084;2022-07-23T08:21:29;100227.91;;;31.10;46.96
68616;BME280;57261;47.504;19.084;2022-07-23T08:24:29;100229.06;;;31.00;47.17
68616;BME280;57261;47.504;19.084;2022-07-23T08:27:30;100217.25;;;31.10;46.67
68616;BME280;57261;47.504;19.084;2022-07-23T08:30:31;100224.88;;;31.05;47.37
68616;BME280;57261;47.504;19.084;2022-07-23T08:33:32;100214.03;;;31.23;46.54
68616;BME280;57261;47.504;19.084;2022-07-23T08:36:33;100220.91;;;31.25;46.52
68616;BME280;57261;47.504;19.084;2022-07-23T08:39:33;100230.69;;;31.25;46.16
68616;BME280;57261;47.504;19.084;2022-07-23T08:42:34;100219.88;;;31.26;44.26
68616;BME280;57261;47.504;19.084;2022-07-23T08:45:40;100222.03;;;31.31;45.91
68616;BME280;57261;47.504;19.084;2022-07-23T08:48:41;100224.38;;;31.34;45.76
68616;BME280;57261;47.504;19.084;2022-07-23T08:51:42;100214.53;;;31.34;45.39
68616;BME280;57261;47.504;19.084;2022-07-23T08:54:43;100214.88;;;31.31;45.54
68616;BME280;57261;47.504;19.084;2022-07-23T08:57:46;100220.22;;;31.31;45.53
68616;BME280;57261;47.504;19.084;2022-07-23T09:00:48;100208.03;;;31.29;45.09
68616;BME280;57261;47.504;19.084;2022-07-23T09:03:49;100209.69;;;31.30;45.14
68616;BME280;57261;47.504;19.084;2022-07-23T09:06:49;100206.88;;;31.31;44.15
68616;BME280;57261;47.504;19.084;2022-07-23T09:10:06;100206.34;;;31.36;44.96
68616;BME280;57261;47.504;19.084;2022-07-23T09:13:22;100201.19;;;31.42;44.67
68616;BME280;57261;47.504;19.084;2022-07-23T09:16:31;100204.88;;;31.33;44.84
68616;BME280;57261;47.504;19.084;2022-07-23T09:19:31;100205.53;;;31.35;44.83
68616;BME280;57261;47.504;19.084;2022-07-23T09:22:32;100202.53;;;31.38;44.67
68616;BME280;57261;47.504;19.084;2022-07-23T09:25:32;100201.50;;;31.39;45.33
68616;BME280;57261;47.504;19.084;2022-07-23T09:28:50;100200.53;;;31.40;45.23
68616;BME280;57261;47.504;19.084;2022-07-23T09:31:56;100201.50;;;31.39;44.68
68616;BME280;57261;47.504;19.084;2022-07-23T09:34:56;100201.69;;;31.38;44.40
68616;BME280;57261;47.504;19.084;2022-07-23T09:38:03;100192.53;;;31.32;44.52
68616;BME280;57261;47.504;19.084;2022-07-23T09:41:10;100204.25;;;31.15;43.94
68616;BME280;57261;47.504;19.084;2022-07-23T09:44:19;100200.75;;;31.07;43.90
68616;BME280;57261;47.504;19.084;2022-07-23T09:47:21;100196.75;;;31.03;43.16
68616;BME280;57261;47.504;19.084;2022-07-23T09:50:22;100190.59;;;31.10;43.66
68616;BME280;57261;47.504;19.084;2022-07-23T09:53:25;100188.09;;;31.09;43.80
68616;BME280;57261;47.504;19.084;2022-07-23T09:56:27;100185.78;;;31.06;43.27
68616;BME280;57261;47.504;19.084;2022-07-23T09:59:30;100181.63;;;31.03;43.82
68616;BME280;57261;47.504;19.084;2022-07-23T10:02:32;100178.97;;;31.03;44.29
68616;BME280;57261;47.504;19.084;2022-07-23T10:05:33;100174.75;;;31.09;43.61
68616;BME280;57261;47.504;19.084;2022-07-23T10:08:35;100143.63;;;30.85;44.37
68616;BME280;57261;47.504;19.084;2022-07-23T10:11:48;100183.09;;;31.14;44.20
68616;BME280;57261;47.504;19.084;2022-07-23T10:14:49;100169.59;;;31.23;43.89
68616;BME280;57261;47.504;19.084;2022-07-23T10:17:50;100166.94;;;31.15;44.33
68616;BME280;57261;47.504;19.084;2022-07-23T10:20:51;100169.09;;;31.28;43.77
68616;BME280;57261;47.504;19.084;2022-07-23T10:24:28;100165.56;;;31.27;43.79
68616;BME280;57261;47.504;19.084;2022-07-23T10:31:07;100167.56;;;31.33;44.06
68616;BME280;57261;47.504;19.084;2022-07-23T10:34:25;100148.94;;;31.25;44.28
68616;BME280;57261;47.504;19.084;2022-07-23T10:37:37;100158.78;;;31.17;44.47
68616;BME280;57261;47.504;19.084;2022-07-23T10:40:53;100157.41;;;31.29;45.74
68616;BME280;57261;47.504;19.084;2022-07-23T10:44:14;100154.22;;;31.33;44.86
68616;BME280;57261;47.504;19.084;2022-07-23T10:47:35;100142.25;;;31.29;44.83
68616;BME280;57261;47.504;19.084;2022-07-23T10:50:40;100143.44;;;31.27;44.80
68616;BME280;57261;47.504;19.084;2022-07-23T11:03:06;100131.88;;;31.50;45.42
68616;BME280;57261;47.504;19.084;2022-07-23T11:06:22;100137.19;;;31.58;45.06
68616;BME280;57261;47.504;19.084;2022-07-23T11:09:29;100119.31;;;31.66;44.70
68616;BME280;57261;47.504;19.084;2022-07-23T11:15:30;100118.19;;;31.53;44.34
68616;BME280;57261;47.504;19.084;2022-07-23T11:18:55;100111.44;;;31.73;43.32
68616;BME280;57261;47.504;19.084;2022-07-23T11:21:56;100112.88;;;31.83;43.99
68616;BME280;57261;47.504;19.084;2022-07-23T11:24:57;100098.31;;;31.94;44.22
68616;BME280;57261;47.504;19.084;2022-07-23T11:28:13;100098.69;;;32.21;44.00
68616;BME280;57261;47.504;19.084;2022-07-23T11:31:17;100088.06;;;32.50;43.36
68616;BME280;57261;47.504;19.084;2022-07-23T11:34:45;100101.50;;;32.64;42.85
68616;BME280;57261;47.504;19.084;2022-07-23T11:37:49;100101.59;;;32.56;41.89
68616;BME280;57261;47.504;19.084;2022-07-23T11:40:56;100094.31;;;32.65;42.43
68616;BME280;57261;47.504;19.084;2022-07-23T11:43:59;100087.16;;;32.80;42.79
68616;BME280;57261;47.504;19.084;2022-07-23T11:47:10;100082.63;;;32.80;43.05
68616;BME280;57261;47.504;19.084;2022-07-23T11:50:12;100082.13;;;34.06;41.37
68616;BME280;57261;47.504;19.084;2022-07-23T11:53:13;100069.34;;;35.85;38.33
68616;BME280;57261;47.504;19.084;2022-07-23T11:56:13;100067.94;;;37.31;35.08
68616;BME280;57261;47.504;19.084;2022-07-23T11:59:15;100063.25;;;38.56;34.10
68616;BME280;57261;47.504;19.084;2022-07-23T12:02:16;100040.38;;;39.91;30.38
68616;BME280;57261;47.504;19.084;2022-07-23T12:05:18;100037.78;;;41.28;30.44
68616;BME280;57261;47.504;19.084;2022-07-23T12:08:19;100041.66;;;41.32;30.04
68616;BME280;57261;47.504;19.084;2022-07-23T12:11:20;100037.84;;;41.56;29.14
68616;BME280;57261;47.504;19.084;2022-07-23T12:14:20;100034.72;;;41.63;29.43
68616;BME280;57261;47.504;19.084;2022-07-23T12:17:24;100028.97;;;41.88;28.61
68616;BME280;57261;47.504;19.084;2022-07-23T12:20:39;100015.59;;;42.96;26.37
68616;BME280;57261;47.504;19.084;2022-07-23T12:23:40;100015.44;;;43.45;27.00
68616;BME280;57261;47.504;19.084;2022-07-23T12:27:10;100011.91;;;43.23;26.96
68616;BME280;57261;47.504;19.084;2022-07-23T12:30:22;99999.13;;;43.24;26.08
68616;BME280;57261;47.504;19.084;2022-07-23T12:33:26;99996.66;;;43.92;25.34
68616;BME280;57261;47.504;19.084;2022-07-23T12:36:37;99996.31;;;41.94;27.54
68616;BME280;57261;47.504;19.084;2022-07-23T12:39:39;99997.00;;;42.88;26.76
68616;BME280;57261;47.504;19.084;2022-07-23T12:42:43;100009.97;;;43.67;26.17
68616;BME280;57261;47.504;19.084;2022-07-23T12:45:52;100005.41;;;43.98;24.91
68616;BME280;57261;47.504;19.084;2022-07-23T12:48:54;99996.81;;;44.43;25.88
68616;BME280;57261;47.504;19.084;2022-07-23T12:51:54;99985.75;;;45.00;24.99
68616;BME280;57261;47.504;19.084;2022-07-23T12:54:55;99978.06;;;45.54;24.36
68616;BME280;57261;47.504;19.084;2022-07-23T12:58:22;99985.44;;;45.63;23.30
68616;BME280;57261;47.504;19.084;2022-07-23T13:01:31;99973.94;;;45.36;23.78
68616;BME280;57261;47.504;19.084;2022-07-23T13:04:32;99974.78;;;45.52;24.46
68616;BME280;57261;47.504;19.084;2022-07-23T13:07:33;99973.84;;;45.26;24.04
68616;BME280;57261;47.504;19.084;2022-07-23T13:10:33;99971.38;;;44.27;24.77
68616;BME280;57261;47.504;19.084;2022-07-23T13:13:35;99977.44;;;41.44;26.17
68616;BME280;57261;47.504;19.084;2022-07-23T13:16:35;99977.44;;;41.44;26.17
68616;BME280;57261;47.504;19.084;2022-07-23T13:19:36;99975.53;;;38.78;31.48
68616;BME280;57261;47.504;19.084;2022-07-23T13:22:36;99972.97;;;38.17;31.45
68616;BME280;57261;47.504;19.084;2022-07-23T13:25:37;99963.66;;;39.51;28.87
68616;BME280;57261;47.504;19.084;2022-07-23T13:28:37;99959.94;;;39.63;29.26
68616;BME280;57261;47.504;19.084;2022-07-23T13:31:38;99948.56;;;39.43;28.45
68616;BME280;57261;47.504;19.084;2022-07-23T13:34:39;99949.72;;;38.47;30.72
68616;BME280;57261;47.504;19.084;2022-07-23T13:37:39;99946.56;;;37.46;32.32
68616;BME280;57261;47.504;19.084;2022-07-23T13:40:42;99942.09;;;36.64;32.83
68616;BME280;57261;47.504;19.084;2022-07-23T13:43:43;99942.09;;;36.64;32.83
68616;BME280;57261;47.504;19.084;2022-07-23T13:46:44;99939.75;;;34.24;37.28
68616;BME280;57261;47.504;19.084;2022-07-23T13:49:44;99939.75;;;34.24;37.28
68616;BME280;57261;47.504;19.084;2022-07-23T13:52:45;99939.25;;;33.66;38.72
68616;BME280;57261;47.504;19.084;2022-07-23T13:55:46;99942.88;;;33.58;38.55
68616;BME280;57261;47.504;19.084;2022-07-23T13:58:48;99933.91;;;33.66;38.15
68616;BME280;57261;47.504;19.084;2022-07-23T14:01:49;99938.16;;;33.60;38.53
68616;BME280;57261;47.504;19.084;2022-07-23T14:04:49;99931.69;;;33.55;38.62
68616;BME280;57261;47.504;19.084;2022-07-23T14:07:50;99924.84;;;33.46;37.94
68616;BME280;57261;47.504;19.084;2022-07-23T14:10:51;99933.56;;;33.04;38.65
68616;BME280;57261;47.504;19.084;2022-07-23T14:13:52;99936.94;;;32.49;39.19
68616;BME280;57261;47.504;19.084;2022-07-23T14:16:52;99933.69;;;32.82;37.02
68616;BME280;57261;47.504;19.084;2022-07-23T14:19:53;99915.06;;;33.03;38.06
68616;BME280;57261;47.504;19.084;2022-07-23T14:22:53;99916.28;;;32.28;41.69
68616;BME280;57261;47.504;19.084;2022-07-23T14:25:55;99909.47;;;32.40;40.61
68616;BME280;57261;47.504;19.084;2022-07-23T14:28:56;99895.59;;;31.94;40.93
68616;BME280;57261;47.504;19.084;2022-07-23T14:31:57;99891.44;;;31.91;40.90
68616;BME280;57261;47.504;19.084;2022-07-23T14:34:58;99868.91;;;31.94;41.10
68616;BME280;57261;47.504;19.084;2022-07-23T14:37:58;99861.28;;;31.91;40.79
68616;BME280;57261;47.504;19.084;2022-07-23T14:40:59;99855.53;;;31.65;41.92
68616;BME280;57261;47.504;19.084;2022-07-23T14:43:59;99855.53;;;31.65;41.92
68616;BME280;57261;47.504;19.084;2022-07-23T14:47:00;99858.31;;;31.49;42.81
68616;BME280;57261;47.504;19.084;2022-07-23T14:50:01;99855.63;;;31.49;42.96
68616;BME280;57261;47.504;19.084;2022-07-23T14:53:01;99858.84;;;32.32;41.04
68616;BME280;57261;47.504;19.084;2022-07-23T14:56:02;99868.41;;;32.41;40.59
68616;BME280;57261;47.504;19.084;2022-07-23T14:59:04;99872.00;;;32.63;40.00
68616;BME280;57261;47.504;19.084;2022-07-23T15:02:04;99869.78;;;32.66;40.37
68616;BME280;57261;47.504;19.084;2022-07-23T15:05:05;99872.00;;;32.77;40.03
68616;BME280;57261;47.504;19.084;2022-07-23T15:08:05;99875.03;;;32.74;40.48
68616;BME280;57261;47.504;19.084;2022-07-23T15:11:06;57463.72;;;-139.05;100.00
68616;BME280;57261;47.504;19.084;2022-07-23T15:14:09;57463.72;;;-139.05;100.00
68616;BME280;57261;47.504;19.084;2022-07-23T15:17:10;57463.72;;;-139.05;100.00
68616;BME280;57261;47.504;19.084;2022-07-23T15:20:11;57463.72;;;-139.05;100.00
68616;BME280;57261;47.504;19.084;2022-07-23T15:23:11;57463.72;;;-139.05;100.00
68616;BME280;57261;47.504;19.084;2022-07-23T15:26:12;57463.72;;;-139.05;100.00
68616;BME280;57261;47.504;19.084;2022-07-23T15:29:15;57463.72;;;-139.05;100.00
68616;BME280;57261;47.504;19.084;2022-07-23T15:32:16;57463.72;;;-139.05;100.00
68616;BME280;57261;47.504;19.084;2022-07-23T15:35:16;57463.72;;;-139.05;100.00
68616;BME280;57261;47.504;19.084;2022-07-23T15:38:17;57463.72;;;-139.05;100.00
68616;BME280;57261;47.504;19.084;2022-07-23T15:41:17;57463.72;;;-139.05;100.00
68616;BME280;57261;47.504;19.084;2022-07-23T15:44:18;57463.72;;;-139.05;100.00
68616;BME280;57261;47.504;19.084;2022-07-23T15:47:18;57463.72;;;-139.05;100.00
68616;BME280;57261;47.504;19.084;2022-07-23T15:50:20;57463.72;;;-139.05;100.00
68616;BME280;57261;47.504;19.084;2022-07-23T15:53:20;57463.72;;;-139.05;100.00
68616;BME280;57261;47.504;19.084;2022-07-23T15:56:21;57463.72;;;-139.05;100.00